Time;durP1;ratioP1;P1;durP2;ratioP2;P2;SDS_P1;SDS_P2;PMS_P1;PMS_P2;Temp;Humidity;BMP_temperature;BMP_pressure;BME280_temperature;BME280_humidity;BME280_pressure;Samples;Min_cycle;Max_cycle;Signal;HPM_P1;HPM_P2
2022/08/24 00:00:24;;;;;;;2.72;1.62;;;;;;;;;;2471149;56;21050;-86
2022/08/24 00:02:51;;;;;;;4.30;2.12;;;;;;;;;;2470867;55;21066;-84
2022/08/24 00:05:20;;;;;;;2.83;1.77;;;;;;;;;;2245793;60;21094;-85
2022/08/24 00:07:47;;;;;;;4.00;1.48;;;;;;;;;;2246333;60;21062;-84
2022/08/24 00:10:14;;;;;;;3.53;1.77;;;;;;;;;;2471589;55;21137;-84
2022/08/24 00:12:42;;;;;;;4.40;1.60;;;;;;;;;;2246539;60;22226;-84
2022/08/24 00:15:10;;;;;;;4.85;1.70;;;;;;;;;;2346564;54;21051;-81
2022/08/24 00:17:38;;;;;;;5.68;2.00;;;;;;;;;;2291918;58;21094;-81
2022/08/24 00:20:06;;;;;;;4.05;1.60;;;;;;;;;;2291884;58;21031;-81
2022/08/24 00:22:33;;;;;;;3.80;1.80;;;;;;;;;;2291710;58;21047;-81
2022/08/24 00:25:00;;;;;;;2.08;1.65;;;;;;;;;;2278185;56;21142;-80
2022/08/24 00:27:27;;;;;;;2.65;1.80;;;;;;;;;;2265897;59;21065;-81
2022/08/24 00:29:55;;;;;;;5.65;1.70;;;;;;;;;;2265485;59;21117;-81
2022/08/24 00:32:22;;;;;;;2.20;1.50;;;;;;;;;;2265462;59;21136;-81
2022/08/24 00:34:49;;;;;;;3.47;1.73;;;;;;;;;;2264211;59;21557;-81
2022/08/24 00:37:16;;;;;;;4.50;1.50;;;;;;;;;;2265786;59;21128;-81
2022/08/24 00:39:43;;;;;;;7.40;2.10;;;;;;;;;;2291049;55;21109;-81
2022/08/24 00:42:10;;;;;;;3.78;1.92;;;;;;;;;;2311033;55;21121;-81
2022/08/24 00:44:37;;;;;;;4.65;2.00;;;;;;;;;;2265803;59;21073;-81
2022/08/24 00:47:07;;;;;;;2.75;1.80;;;;;;;;;;2265573;59;21073;-81
2022/08/24 00:49:36;;;;;;;6.35;1.80;;;;;;;;;;2268980;55;21217;-81
2022/08/24 00:52:06;;;;;;;3.47;1.80;;;;;;;;;;2266129;59;21672;-81
2022/08/24 00:54:36;;;;;;;6.28;1.90;;;;;;;;;;2266163;56;21122;-81
2022/08/24 00:57:05;;;;;;;4.30;1.52;;;;;;;;;;2266110;59;21074;-81
2022/08/24 00:59:34;;;;;;;5.90;1.60;;;;;;;;;;2266209;59;21411;-81
2022/08/24 01:02:03;;;;;;;6.50;2.10;;;;;;;;;;2315737;55;21189;-80
2022/08/24 01:04:32;;;;;;;2.62;1.50;;;;;;;;;;2265964;59;22132;-81
2022/08/24 01:06:59;;;;;;;10.48;3.45;;;;;;;;;;2266255;59;21072;-82
2022/08/24 01:09:26;;;;;;;6.53;1.70;;;;;;;;;;2268994;59;21101;-81
2022/08/24 01:11:53;;;;;;;4.37;1.73;;;;;;;;;;2311118;55;21169;-81
2022/08/24 01:14:21;;;;;;;2.42;1.85;;;;;;;;;;2280149;55;21065;-81
2022/08/24 01:19:35;;;;;;;8.60;1.87;;;;;;;;;;2267309;55;21009;-81
2022/08/24 01:22:09;;;;;;;5.28;1.73;;;;;;;;;;2266717;59;21568;-81
2022/08/24 01:24:36;;;;;;;1.87;1.52;;;;;;;;;;2265437;59;21701;-80
2022/08/24 01:27:04;;;;;;;4.55;1.65;;;;;;;;;;2266879;55;21116;-81
2022/08/24 01:29:31;;;;;;;6.37;2.20;;;;;;;;;;2269998;55;21122;-81
2022/08/24 01:31:58;;;;;;;4.20;2.17;;;;;;;;;;2265229;59;21149;-81
2022/08/24 01:34:26;;;;;;;3.65;1.77;;;;;;;;;;2269016;55;21121;-81
2022/08/24 01:36:55;;;;;;;3.92;2.12;;;;;;;;;;2265847;59;22276;-82
2022/08/24 01:39:24;;;;;;;4.07;2.17;;;;;;;;;;2270387;55;21140;-80
2022/08/24 01:41:53;;;;;;;3.62;2.15;;;;;;;;;;2266996;55;21073;-81
2022/08/24 01:44:20;;;;;;;3.67;1.40;;;;;;;;;;2276642;55;21105;-80
2022/08/24 01:46:48;;;;;;;2.53;1.73;;;;;;;;;;2265828;59;21137;-81
2022/08/24 01:49:16;;;;;;;4.50;2.40;;;;;;;;;;2266107;59;21136;-81
2022/08/24 01:51:45;;;;;;;4.90;2.30;;;;;;;;;;2265853;59;21057;-81
2022/08/24 01:54:12;;;;;;;4.20;1.92;;;;;;;;;;2265603;59;21129;-81
2022/08/24 01:56:39;;;;;;;2.47;1.90;;;;;;;;;;2265948;59;21065;-81
2022/08/24 01:59:06;;;;;;;2.97;1.85;;;;;;;;;;2265895;55;21094;-81
2022/08/24 02:01:35;;;;;;;4.70;2.05;;;;;;;;;;2266154;59;21054;-81
2022/08/24 02:04:03;;;;;;;3.72;2.08;;;;;;;;;;2288522;55;21081;-81
2022/08/24 02:06:31;;;;;;;2.35;2.03;;;;;;;;;;2265296;59;21566;-81
2022/08/24 02:08:58;;;;;;;5.70;2.47;;;;;;;;;;2265949;59;21069;-81
2022/08/24 02:11:26;;;;;;;3.40;2.08;;;;;;;;;;2265897;59;21112;-81
2022/08/24 02:13:53;;;;;;;6.03;2.85;;;;;;;;;;2281025;55;21152;-81
2022/08/24 02:16:20;;;;;;;3.10;1.95;;;;;;;;;;2296444;55;21121;-81
2022/08/24 02:18:47;;;;;;;6.20;2.40;;;;;;;;;;2265650;59;21077;-81
2022/08/24 02:21:15;;;;;;;2.95;1.90;;;;;;;;;;2266432;59;21060;-81
2022/08/24 02:23:43;;;;;;;5.65;2.17;;;;;;;;;;2296727;55;21690;-81
2022/08/24 02:26:10;;;;;;;4.37;2.22;;;;;;;;;;2265418;59;21061;-80
2022/08/24 02:28:37;;;;;;;6.07;2.42;;;;;;;;;;2265987;59;21097;-81
2022/08/24 02:31:05;;;;;;;5.22;2.40;;;;;;;;;;2265974;59;21125;-81
2022/08/24 02:33:32;;;;;;;3.60;2.05;;;;;;;;;;2266014;59;21136;-83
2022/08/24 02:35:59;;;;;;;7.10;2.87;;;;;;;;;;2265453;59;21538;-81
2022/08/24 02:38:26;;;;;;;4.87;2.28;;;;;;;;;;2266346;59;21579;-81
2022/08/24 02:40:55;;;;;;;5.12;2.30;;;;;;;;;;2266114;59;21601;-82
2022/08/24 02:43:23;;;;;;;2.60;2.10;;;;;;;;;;2286529;55;21065;-81
2022/08/24 02:45:50;;;;;;;3.75;2.17;;;;;;;;;;2264936;59;21225;-81
2022/08/24 02:48:17;;;;;;;3.72;2.20;;;;;;;;;;2279163;55;21577;-81
2022/08/24 02:50:45;;;;;;;4.35;2.33;;;;;;;;;;2270794;55;21053;-81
2022/08/24 02:53:14;;;;;;;2.35;1.95;;;;;;;;;;2266408;59;21101;-81
2022/08/24 02:55:41;;;;;;;6.28;2.10;;;;;;;;;;2264696;59;21061;-81
2022/08/24 02:58:09;;;;;;;5.10;2.20;;;;;;;;;;2276916;55;21077;-81
2022/08/24 03:00:37;;;;;;;3.80;2.33;;;;;;;;;;2337557;55;21157;-81
2022/08/24 03:03:06;;;;;;;6.28;2.40;;;;;;;;;;2264857;56;21105;-80
2022/08/24 03:05:33;;;;;;;3.12;2.05;;;;;;;;;;2265418;59;21077;-81
2022/08/24 03:08:00;;;;;;;3.17;1.90;;;;;;;;;;2266291;59;21627;-82
2022/08/24 03:10:27;;;;;;;4.18;2.03;;;;;;;;;;2266108;59;21077;-81
2022/08/24 03:12:54;;;;;;;7.25;2.55;;;;;;;;;;2266010;59;21290;-81
2022/08/24 03:15:22;;;;;;;5.68;2.20;;;;;;;;;;2266272;59;21585;-81
2022/08/24 03:17:50;;;;;;;3.72;2.72;;;;;;;;;;2269235;55;21641;-81
2022/08/24 03:20:18;;;;;;;5.00;1.95;;;;;;;;;;2266782;59;21069;-82
2022/08/24 03:22:45;;;;;;;3.42;2.17;;;;;;;;;;2266511;59;21049;-81
2022/08/24 03:25:13;;;;;;;4.80;2.20;;;;;;;;;;2265923;59;21141;-81
2022/08/24 03:27:40;;;;;;;6.53;2.78;;;;;;;;;;2268119;55;21145;-81
2022/08/24 03:30:11;;;;;;;5.62;2.45;;;;;;;;;;2266383;59;21062;-81
2022/08/24 03:32:39;;;;;;;4.57;2.33;;;;;;;;;;2266502;59;21061;-81
2022/08/24 03:35:07;;;;;;;5.75;2.45;;;;;;;;;;2265257;59;21085;-81
2022/08/24 03:37:34;;;;;;;5.87;2.67;;;;;;;;;;2265771;59;21148;-81
2022/08/24 03:40:01;;;;;;;6.62;2.67;;;;;;;;;;2266064;59;21140;-81
2022/08/24 03:42:28;;;;;;;10.40;2.30;;;;;;;;;;2266319;59;21149;-81
2022/08/24 03:44:55;;;;;;;7.03;2.40;;;;;;;;;;2289061;55;21105;-82
2022/08/24 03:47:22;;;;;;;4.07;3.10;;;;;;;;;;2265785;59;21965;-81
2022/08/24 03:49:49;;;;;;;2.70;2.00;;;;;;;;;;2265657;59;21117;-81
2022/08/24 03:52:17;;;;;;;4.87;2.75;;;;;;;;;;2308335;55;21212;-81
2022/08/24 03:54:44;;;;;;;3.47;2.40;;;;;;;;;;2265700;59;21109;-81
2022/08/24 03:57:11;;;;;;;3.10;2.45;;;;;;;;;;2266234;59;21109;-81
2022/08/24 03:59:38;;;;;;;4.95;2.40;;;;;;;;;;2266420;59;21177;-81
2022/08/24 04:02:05;;;;;;;6.03;2.65;;;;;;;;;;2277920;55;21062;-81
2022/08/24 04:04:32;;;;;;;4.43;2.15;;;;;;;;;;2266000;59;21069;-81
2022/08/24 04:06:59;;;;;;;4.03;2.15;;;;;;;;;;2282636;55;21728;-82
2022/08/24 04:09:26;;;;;;;5.03;2.10;;;;;;;;;;2265214;59;21578;-81
2022/08/24 04:11:53;;;;;;;4.93;2.70;;;;;;;;;;2266225;59;21061;-82
2022/08/24 04:14:20;;;;;;;4.97;2.70;;;;;;;;;;2265830;57;21081;-81
2022/08/24 04:16:47;;;;;;;5.60;2.67;;;;;;;;;;2271067;55;21069;-82
2022/08/24 04:19:14;;;;;;;4.70;2.45;;;;;;;;;;2265948;59;21137;-81
2022/08/24 04:21:43;;;;;;;5.10;2.30;;;;;;;;;;2266588;59;21058;-81
2022/08/24 04:24:10;;;;;;;4.55;2.60;;;;;;;;;;2265968;59;21125;-81
2022/08/24 04:26:38;;;;;;;3.90;2.70;;;;;;;;;;2264827;59;21648;-80
2022/08/24 04:29:08;;;;;;;5.55;2.55;;;;;;;;;;2265711;59;21149;-81
2022/08/24 04:31:35;;;;;;;3.92;2.58;;;;;;;;;;2267542;55;21125;-81
2022/08/24 04:34:02;;;;;;;5.68;2.65;;;;;;;;;;2265650;59;21094;-81
2022/08/24 04:36:29;;;;;;;5.93;2.87;;;;;;;;;;2264933;59;21077;-81
2022/08/24 04:38:56;;;;;;;6.07;2.85;;;;;;;;;;2265372;59;21625;-81
2022/08/24 04:41:23;;;;;;;3.72;2.83;;;;;;;;;;2265980;57;21105;-81
2022/08/24 04:43:50;;;;;;;3.80;2.62;;;;;;;;;;2265596;59;21133;-80
2022/08/24 04:46:18;;;;;;;6.37;2.72;;;;;;;;;;2265134;59;21689;-81
2022/08/24 04:48:46;;;;;;;5.40;2.67;;;;;;;;;;2266406;59;21106;-81
2022/08/24 04:51:14;;;;;;;9.68;3.45;;;;;;;;;;2266090;59;21069;-80
2022/08/24 04:53:41;;;;;;;5.28;2.95;;;;;;;;;;2265466;59;21066;-81
2022/08/24 04:56:10;;;;;;;6.28;2.70;;;;;;;;;;2266472;55;21113;-81
2022/08/24 04:58:38;;;;;;;5.43;3.53;;;;;;;;;;2284943;55;21061;-80
2022/08/24 05:01:07;;;;;;;7.28;3.28;;;;;;;;;;2265820;59;21058;-82
2022/08/24 05:03:34;;;;;;;5.53;3.53;;;;;;;;;;2314974;55;21110;-81
2022/08/24 05:06:01;;;;;;;4.40;3.00;;;;;;;;;;2264709;59;21128;-80
2022/08/24 05:08:28;;;;;;;6.30;3.30;;;;;;;;;;2267297;55;21125;-81
2022/08/24 05:10:55;;;;;;;5.60;3.17;;;;;;;;;;2265886;59;21057;-80
2022/08/24 05:13:23;;;;;;;8.00;3.62;;;;;;;;;;2284289;55;21133;-81
2022/08/24 05:15:51;;;;;;;5.55;3.20;;;;;;;;;;2266097;59;21113;-81
2022/08/24 05:18:18;;;;;;;8.90;3.75;;;;;;;;;;2266523;59;21069;-81
2022/08/24 05:20:46;;;;;;;6.82;3.60;;;;;;;;;;2266419;59;21066;-81
2022/08/24 05:23:13;;;;;;;8.88;3.22;;;;;;;;;;2286406;55;21661;-81
2022/08/24 05:25:41;;;;;;;4.30;3.25;;;;;;;;;;2265606;59;21074;-80
2022/08/24 05:28:08;;;;;;;6.40;2.70;;;;;;;;;;2265923;59;21053;-80
2022/08/24 05:30:36;;;;;;;6.10;3.12;;;;;;;;;;2270872;55;21065;-81
2022/08/24 05:33:04;;;;;;;7.43;3.45;;;;;;;;;;2274502;55;21049;-81
2022/08/24 05:35:31;;;;;;;6.70;3.20;;;;;;;;;;2301886;55;21058;-81
2022/08/24 05:37:58;;;;;;;6.55;3.40;;;;;;;;;;2266386;59;21117;-81
2022/08/24 05:40:25;;;;;;;4.35;2.90;;;;;;;;;;2266065;59;21102;-81
2022/08/24 05:42:52;;;;;;;6.78;3.83;;;;;;;;;;2266549;59;21045;-81
2022/08/24 05:45:19;;;;;;;7.37;3.55;;;;;;;;;;2266162;59;21213;-80
2022/08/24 05:47:46;;;;;;;6.85;3.42;;;;;;;;;;2266522;59;21073;-80
2022/08/24 05:50:13;;;;;;;5.07;2.75;;;;;;;;;;2275522;55;21093;-81
2022/08/24 05:52:40;;;;;;;4.75;3.12;;;;;;;;;;2265862;59;21065;-81
2022/08/24 05:55:09;;;;;;;4.15;3.12;;;;;;;;;;2266136;59;21129;-80
2022/08/24 05:57:36;;;;;;;6.80;3.15;;;;;;;;;;2266516;59;21611;-81
2022/08/24 06:00:07;;;;;;;7.40;3.03;;;;;;;;;;2265864;59;21427;-81
2022/08/24 06:02:34;;;;;;;5.68;3.35;;;;;;;;;;2266476;59;21121;-81
2022/08/24 06:05:01;;;;;;;5.85;3.30;;;;;;;;;;2265953;59;21066;-81
2022/08/24 06:07:28;;;;;;;7.50;3.30;;;;;;;;;;2283077;55;21057;-81
2022/08/24 06:09:56;;;;;;;6.87;3.22;;;;;;;;;;2266585;59;21133;-81
2022/08/24 06:12:23;;;;;;;6.12;3.17;;;;;;;;;;2267469;59;21077;-81
2022/08/24 06:14:50;;;;;;;6.30;3.67;;;;;;;;;;2355982;52;71163;-79
2022/08/24 06:17:18;;;;;;;4.72;3.05;;;;;;;;;;2386458;56;21459;-78
2022/08/24 06:19:45;;;;;;;4.35;3.10;;;;;;;;;;2386753;56;21030;-79
2022/08/24 06:22:12;;;;;;;8.45;4.15;;;;;;;;;;2379606;56;21075;-78
2022/08/24 06:27:25;;;;;;;6.15;3.42;;;;;;;;;;2358316;57;21004;-78
2022/08/24 06:29:53;;;;;;;6.32;3.35;;;;;;;;;;2359429;57;21024;-78
2022/08/24 06:32:20;;;;;;;6.15;3.35;;;;;;;;;;2357101;57;21104;-78
2022/08/24 06:34:47;;;;;;;5.30;3.15;;;;;;;;;;2358556;57;21071;-78
2022/08/24 06:37:14;;;;;;;7.87;3.33;;;;;;;;;;2357462;57;21016;-78
2022/08/24 06:39:41;;;;;;;5.55;2.95;;;;;;;;;;2359056;57;21032;-78
2022/08/24 06:42:09;;;;;;;6.22;3.40;;;;;;;;;;2358582;57;21096;-78
2022/08/24 06:44:36;;;;;;;6.50;3.40;;;;;;;;;;2358845;57;21104;-78
2022/08/24 06:47:04;;;;;;;4.50;3.08;;;;;;;;;;2358380;57;21047;-78
2022/08/24 06:49:31;;;;;;;5.07;2.95;;;;;;;;;;2608874;53;20996;-78
2022/08/24 06:51:58;;;;;;;8.07;3.30;;;;;;;;;;2358824;57;21040;-79
2022/08/24 06:54:25;;;;;;;7.75;3.37;;;;;;;;;;2358517;57;21059;-79
2022/08/24 06:56:52;;;;;;;6.10;3.30;;;;;;;;;;2358447;57;21582;-78
2022/08/24 06:59:19;;;;;;;6.68;3.08;;;;;;;;;;2608457;53;21032;-78
2022/08/24 07:01:46;;;;;;;5.28;3.00;;;;;;;;;;2359156;57;21095;-78
2022/08/24 07:04:13;;;;;;;6.50;2.95;;;;;;;;;;2359406;57;21103;-79
2022/08/24 07:06:41;;;;;;;6.25;3.03;;;;;;;;;;2358888;57;21028;-78
2022/08/24 07:09:08;;;;;;;6.87;3.00;;;;;;;;;;2609294;53;21064;-78
2022/08/24 07:11:35;;;;;;;5.28;3.03;;;;;;;;;;2358409;57;21095;-78
2022/08/24 07:14:02;;;;;;;7.70;3.25;;;;;;;;;;2358731;57;21167;-78
2022/08/24 07:16:30;;;;;;;5.47;2.50;;;;;;;;;;2608327;52;21032;-78
2022/08/24 07:18:57;;;;;;;6.25;2.80;;;;;;;;;;2609279;53;21024;-78
2022/08/24 07:21:24;;;;;;;4.65;2.80;;;;;;;;;;2359348;57;21028;-79
2022/08/24 07:23:54;;;;;;;4.87;3.25;;;;;;;;;;2359382;57;21024;-79
2022/08/24 07:26:22;;;;;;;6.87;2.92;;;;;;;;;;2608827;53;21531;-79
2022/08/24 07:28:49;;;;;;;4.70;2.33;;;;;;;;;;2358351;57;21043;-78
2022/08/24 07:31:16;;;;;;;5.62;2.37;;;;;;;;;;2359204;57;21020;-79
2022/08/24 07:33:44;;;;;;;4.10;2.40;;;;;;;;;;2358944;57;21044;-79
2022/08/24 07:36:11;;;;;;;3.05;2.40;;;;;;;;;;2358766;57;21305;-79
2022/08/24 07:38:38;;;;;;;4.75;2.37;;;;;;;;;;2359754;57;21028;-79
2022/08/24 07:41:05;;;;;;;5.82;2.55;;;;;;;;;;2359193;57;21032;-79
2022/08/24 07:43:33;;;;;;;5.93;2.55;;;;;;;;;;2358150;57;21087;-78
2022/08/24 07:46:00;;;;;;;6.00;2.28;;;;;;;;;;2358623;57;21105;-79
2022/08/24 07:48:27;;;;;;;5.72;2.30;;;;;;;;;;2358932;57;21020;-79
2022/08/24 07:50:55;;;;;;;4.82;2.17;;;;;;;;;;2359535;57;21083;-79
2022/08/24 07:53:22;;;;;;;5.93;2.80;;;;;;;;;;2609596;52;21665;-79
2022/08/24 07:55:53;;;;;;;5.37;2.37;;;;;;;;;;2359058;57;21016;-79
2022/08/24 07:58:20;;;;;;;4.93;2.30;;;;;;;;;;2359179;57;21044;-78
2022/08/24 08:00:47;;;;;;;2.67;2.03;;;;;;;;;;2608517;53;21044;-79
2022/08/24 08:03:14;;;;;;;4.22;2.20;;;;;;;;;;2359405;57;21012;-79
2022/08/24 08:05:42;;;;;;;5.82;2.37;;;;;;;;;;2358185;57;21028;-79
2022/08/24 08:08:09;;;;;;;4.62;2.15;;;;;;;;;;2609307;53;21030;-78
2022/08/24 08:10:36;;;;;;;4.55;2.45;;;;;;;;;;2358454;57;21036;-78
2022/08/24 08:13:03;;;;;;;4.28;2.55;;;;;;;;;;2358694;57;21592;-78
2022/08/24 08:15:30;;;;;;;4.75;2.33;;;;;;;;;;2358413;57;21103;-78
2022/08/24 08:17:57;;;;;;;6.80;2.25;;;;;;;;;;2607802;53;21023;-78
2022/08/24 08:20:25;;;;;;;6.10;2.40;;;;;;;;;;2358589;57;21028;-78
2022/08/24 08:25:37;;;;;;;5.40;2.62;;;;;;;;;;2358510;57;20987;-79
2022/08/24 08:28:05;;;;;;;4.82;2.40;;;;;;;;;;2609074;53;21028;-79
2022/08/24 08:30:32;;;;;;;7.45;2.35;;;;;;;;;;2357839;57;21016;-79
2022/08/24 08:32:59;;;;;;;6.45;2.45;;;;;;;;;;2356490;57;21566;-79
2022/08/24 08:35:26;;;;;;;5.10;2.40;;;;;;;;;;2355822;57;22311;-78
2022/08/24 08:37:55;;;;;;;6.25;2.37;;;;;;;;;;2355421;57;21044;-79
2022/08/24 08:40:35;;;;;;;6.40;2.70;;;;;;;;;;2356557;57;21012;-78
2022/08/24 08:43:04;;;;;;;6.20;2.62;;;;;;;;;;2357112;57;21578;-78
2022/08/24 08:45:35;;;;;;;6.50;2.67;;;;;;;;;;2355687;57;21047;-79
2022/08/24 08:48:13;;;;;;;4.35;2.17;;;;;;;;;;2356670;57;21074;-79
2022/08/24 08:50:51;;;;;;;3.70;2.30;;;;;;;;;;2606271;53;21598;-79
2022/08/24 08:53:41;;;;;;;3.92;2.30;;;;;;;;;;2607165;52;21036;-78
2022/08/24 08:56:14;;;;;;;5.68;2.40;;;;;;;;;;2340205;57;21108;-78
2022/08/24 08:58:49;;;;;;;5.80;2.45;;;;;;;;;;2607655;53;21025;-78
2022/08/24 09:01:20;;;;;;;6.28;2.17;;;;;;;;;;2358969;57;21016;-78
2022/08/24 09:04:08;;;;;;;3.17;2.10;;;;;;;;;;2358259;57;21531;-78
2022/08/24 09:06:40;;;;;;;11.68;2.87;;;;;;;;;;2358166;57;21193;-79
2022/08/24 09:09:13;;;;;;;7.18;2.95;;;;;;;;;;2608338;53;21325;-79
2022/08/24 09:11:48;;;;;;;4.15;2.35;;;;;;;;;;2608096;52;21040;-78
2022/08/24 09:14:37;;;;;;;4.47;2.30;;;;;;;;;;2607695;53;21597;-79
2022/08/24 09:17:09;;;;;;;3.83;2.30;;;;;;;;;;2345715;57;21033;-78
2022/08/24 09:19:46;;;;;;;4.15;2.58;;;;;;;;;;2358306;57;21028;-79
2022/08/24 09:22:14;;;;;;;5.57;2.37;;;;;;;;;;2358417;57;21104;-81
2022/08/24 09:24:53;;;;;;;4.70;2.47;;;;;;;;;;2358604;57;21008;-81
2022/08/24 09:27:25;;;;;;;5.03;2.60;;;;;;;;;;2359310;57;21032;-80
2022/08/24 09:29:59;;;;;;;4.93;2.22;;;;;;;;;;2359447;57;21044;-80
2022/08/24 09:32:36;;;;;;;5.18;2.67;;;;;;;;;;2608666;52;21040;-79
2022/08/24 09:35:07;;;;;;;4.40;2.22;;;;;;;;;;2359684;57;21088;-81
2022/08/24 09:37:42;;;;;;;4.32;2.58;;;;;;;;;;2359006;57;21072;-81
2022/08/24 09:40:16;;;;;;;4.47;2.65;;;;;;;;;;2358646;57;21099;-76
2022/08/24 09:42:57;;;;;;;4.95;2.60;;;;;;;;;;2607446;52;21507;-80
2022/08/24 09:45:37;;;;;;;3.72;2.47;;;;;;;;;;2359351;57;21087;-79
2022/08/24 09:48:11;;;;;;;4.65;2.37;;;;;;;;;;2359427;57;21135;-80
2022/08/24 09:50:49;;;;;;;4.50;2.05;;;;;;;;;;2359729;57;21036;-79
2022/08/24 09:53:36;;;;;;;5.40;2.33;;;;;;;;;;2609590;52;21044;-77
2022/08/24 09:56:15;;;;;;;4.45;2.50;;;;;;;;;;2340951;57;21068;-77
2022/08/24 09:58:49;;;;;;;3.87;2.10;;;;;;;;;;2608776;53;21100;-79
2022/08/24 10:01:22;;;;;;;4.80;2.00;;;;;;;;;;2608929;53;21013;-78
2022/08/24 10:03:55;;;;;;;3.00;2.00;;;;;;;;;;2358930;57;21031;-78
2022/08/24 10:06:27;;;;;;;3.97;2.47;;;;;;;;;;2358674;57;21506;-77
2022/08/24 10:09:10;;;;;;;6.15;2.10;;;;;;;;;;2358541;57;21517;-80
2022/08/24 10:11:41;;;;;;;6.00;2.58;;;;;;;;;;2607511;52;21067;-82
2022/08/24 10:14:16;;;;;;;4.18;1.85;;;;;;;;;;2358444;57;21035;-78
2022/08/24 10:16:46;;;;;;;4.00;2.30;;;;;;;;;;2358208;57;21040;-78
2022/08/24 10:19:22;;;;;;;5.00;2.35;;;;;;;;;;2358843;57;21079;-78
2022/08/24 10:21:54;;;;;;;5.47;2.17;;;;;;;;;;2358735;57;21095;-81
2022/08/24 10:24:29;;;;;;;3.17;2.25;;;;;;;;;;2358472;57;21024;-78
2022/08/24 10:27:08;;;;;;;4.18;2.55;;;;;;;;;;2357181;57;21048;-78
2022/08/24 10:29:52;;;;;;;5.07;2.00;;;;;;;;;;2357829;57;21104;-78
2022/08/24 10:32:27;;;;;;;4.47;2.20;;;;;;;;;;2358862;57;21099;-77
2022/08/24 10:35:01;;;;;;;2.78;1.87;;;;;;;;;;2358658;57;21106;-77
2022/08/24 10:37:40;;;;;;;2.90;1.95;;;;;;;;;;2358542;57;21015;-78
2022/08/24 10:40:13;;;;;;;3.50;1.73;;;;;;;;;;2357462;57;21530;-79
2022/08/24 10:48:59;;;;;;;4.15;1.83;;;;;;;;;;2605719;53;22045;-78
2022/08/24 10:51:34;;;;;;;4.68;1.85;;;;;;;;;;2348071;57;21049;-77
2022/08/24 10:54:03;;;;;;;2.78;1.70;;;;;;;;;;2320809;58;21740;-79
2022/08/24 10:56:36;;;;;;;4.07;2.03;;;;;;;;;;2320079;58;21069;-81
2022/08/24 10:59:07;;;;;;;6.15;1.90;;;;;;;;;;2562447;53;21116;-78
2022/08/24 11:01:36;;;;;;;3.70;1.70;;;;;;;;;;2320208;58;21137;-80
2022/08/24 11:04:05;;;;;;;5.20;2.10;;;;;;;;;;2320520;58;21147;-79
2022/08/24 11:06:33;;;;;;;3.92;2.00;;;;;;;;;;2319335;58;21092;-79
2022/08/24 11:09:02;;;;;;;4.22;1.75;;;;;;;;;;2320975;58;21586;-78
2022/08/24 11:11:31;;;;;;;2.10;1.50;;;;;;;;;;2320190;58;21059;-79
2022/08/24 11:14:00;;;;;;;3.85;1.92;;;;;;;;;;2320890;58;21115;-77
2022/08/24 11:16:29;;;;;;;2.80;1.55;;;;;;;;;;2319584;58;21178;-77
2022/08/24 11:18:57;;;;;;;3.45;1.80;;;;;;;;;;2320860;58;21040;-77
2022/08/24 11:21:52;;;;;;;3.53;1.70;;;;;;;;;;2320949;58;21040;-78
2022/08/24 11:24:27;;;;;;;4.90;1.90;;;;;;;;;;2299558;58;21115;-77
2022/08/24 11:26:56;;;;;;;6.00;2.20;;;;;;;;;;2320067;58;21547;-78
2022/08/24 11:29:26;;;;;;;3.42;1.77;;;;;;;;;;2562426;54;21163;-77
2022/08/24 11:31:53;;;;;;;3.28;1.87;;;;;;;;;;2319995;58;21119;-77
2022/08/24 11:34:30;;;;;;;4.95;2.00;;;;;;;;;;2320997;58;21048;-79
2022/08/24 11:36:57;;;;;;;3.55;1.50;;;;;;;;;;2320357;58;21064;-78
2022/08/24 11:39:26;;;;;;;5.93;1.75;;;;;;;;;;2320025;58;21115;-78
2022/08/24 11:41:55;;;;;;;3.80;1.60;;;;;;;;;;2320559;58;21128;-79
2022/08/24 11:44:30;;;;;;;2.70;1.73;;;;;;;;;;2320618;58;21559;-77
2022/08/24 11:46:59;;;;;;;7.32;1.67;;;;;;;;;;2319628;58;21139;-78
2022/08/24 11:49:28;;;;;;;3.40;1.80;;;;;;;;;;2320719;58;21534;-78
2022/08/24 11:51:59;;;;;;;3.80;2.10;;;;;;;;;;2320935;58;21083;-77
2022/08/24 11:54:31;;;;;;;2.67;1.77;;;;;;;;;;2562577;54;21071;-79
2022/08/24 11:57:06;;;;;;;5.45;2.00;;;;;;;;;;2320157;58;21043;-78
2022/08/24 11:59:38;;;;;;;2.60;1.42;;;;;;;;;;2317751;58;21048;-78
2022/08/24 12:02:08;;;;;;;3.53;1.90;;;;;;;;;;2318736;58;22337;-78
2022/08/24 12:04:41;;;;;;;2.45;1.62;;;;;;;;;;2319521;58;21577;-78
2022/08/24 12:07:15;;;;;;;4.55;2.15;;;;;;;;;;2319004;58;21055;-80
2022/08/24 12:09:48;;;;;;;2.17;1.40;;;;;;;;;;2561452;53;21534;-78
2022/08/24 12:12:19;;;;;;;3.97;1.80;;;;;;;;;;2319809;58;21366;-78
2022/08/24 12:14:50;;;;;;;4.18;1.87;;;;;;;;;;2328685;55;21204;-81
2022/08/24 12:17:20;;;;;;;3.70;1.98;;;;;;;;;;2236954;60;21194;-78
2022/08/24 12:19:49;;;;;;;2.47;1.60;;;;;;;;;;2461390;56;21605;-82
2022/08/24 12:22:17;;;;;;;2.85;1.70;;;;;;;;;;2237067;60;21669;-79
2022/08/24 12:24:47;;;;;;;2.80;1.77;;;;;;;;;;2459048;56;21055;-78
2022/08/24 12:27:16;;;;;;;2.70;1.80;;;;;;;;;;2235292;60;21116;-79
2022/08/24 12:29:45;;;;;;;3.55;1.83;;;;;;;;;;2235728;60;21059;-79
2022/08/24 12:32:15;;;;;;;3.17;1.80;;;;;;;;;;2393201;53;70104;-84
2022/08/24 12:34:48;;;;;;;4.05;1.70;;;;;;;;;;2289827;59;21689;-85
2022/08/24 12:37:18;;;;;;;3.87;1.85;;;;;;;;;;2288695;59;21090;-84
2022/08/24 12:39:46;;;;;;;4.97;1.87;;;;;;;;;;2289688;59;21046;-85
2022/08/24 12:42:17;;;;;;;4.22;1.67;;;;;;;;;;2522766;55;21618;-86
2022/08/24 12:44:47;;;;;;;4.25;2.20;;;;;;;;;;2289385;59;21063;-86
2022/08/24 12:47:19;;;;;;;3.67;1.83;;;;;;;;;;2289715;59;21117;-85
2022/08/24 12:49:48;;;;;;;2.72;1.55;;;;;;;;;;2290244;59;21055;-85
2022/08/24 12:52:28;;;;;;;2.85;1.87;;;;;;;;;;2523184;55;21046;-86
2022/08/24 12:55:07;;;;;;;4.30;1.77;;;;;;;;;;2515730;53;21629;-84
2022/08/24 12:57:48;;;;;;;2.45;1.60;;;;;;;;;;2290117;58;21070;-82
2022/08/24 13:00:17;;;;;;;4.28;1.90;;;;;;;;;;2290985;59;21066;-81
2022/08/24 13:02:53;;;;;;;5.47;1.92;;;;;;;;;;2525387;54;21102;-83
2022/08/24 13:05:21;;;;;;;5.47;2.03;;;;;;;;;;2523754;54;21078;-83
2022/08/24 13:07:49;;;;;;;4.22;1.40;;;;;;;;;;2523184;55;21377;-82
2022/08/24 13:10:32;;;;;;;4.72;1.62;;;;;;;;;;2521526;55;21094;-80
2022/08/24 13:13:17;;;;;;;5.03;1.92;;;;;;;;;;2520269;55;21090;-81
2022/08/24 13:15:51;;;;;;;4.62;1.95;;;;;;;;;;2522355;55;21126;-81
2022/08/24 13:18:46;;;;;;;4.35;1.70;;;;;;;;;;2287154;59;21567;-81
2022/08/24 13:21:16;;;;;;;2.92;1.70;;;;;;;;;;2288217;59;21074;-81
2022/08/24 13:23:43;;;;;;;3.97;1.90;;;;;;;;;;2521549;54;21071;-81
2022/08/24 13:26:22;;;;;;;4.07;1.70;;;;;;;;;;2285548;59;21551;-81
2022/08/24 13:28:53;;;;;;;3.72;1.83;;;;;;;;;;2522264;55;21051;-84
2022/08/24 13:31:31;;;;;;;2.55;1.80;;;;;;;;;;2288422;59;21082;-83
2022/08/24 13:33:59;;;;;;;3.83;2.08;;;;;;;;;;2522780;54;21540;-81
2022/08/24 13:36:52;;;;;;;5.05;2.03;;;;;;;;;;2289316;59;21063;-81
2022/08/24 13:39:26;;;;;;;3.40;1.85;;;;;;;;;;2289074;59;21074;-82
2022/08/24 13:44:41;;;;;;;7.37;2.03;;;;;;;;;;2496768;55;22197;-80
2022/08/24 13:47:11;;;;;;;3.45;1.80;;;;;;;;;;2262504;59;21105;-80
2022/08/24 13:49:50;;;;;;;6.87;2.12;;;;;;;;;;2264817;59;21668;-79
2022/08/24 13:52:21;;;;;;;4.10;1.92;;;;;;;;;;2265070;59;21162;-80
2022/08/24 13:54:54;;;;;;;1.80;1.50;;;;;;;;;;2264497;59;21116;-80
2022/08/24 13:57:20;;;;;;;;;;;;;;;;;;2267807;59;21151;-80
2022/08/24 13:59:57;;;;;;;3.45;1.83;;;;;;;;;;2263720;59;20117;-80
2022/08/24 14:02:30;;;;;;;3.53;1.67;;;;;;;;;;2264684;59;21167;-79
2022/08/24 14:05:01;;;;;;;3.08;2.03;;;;;;;;;;2263168;59;21063;-79
2022/08/24 14:07:30;;;;;;;4.47;1.60;;;;;;;;;;2260829;59;21625;-78
2022/08/24 14:10:03;;;;;;;3.20;1.90;;;;;;;;;;2264487;59;21064;-80
2022/08/24 14:12:38;;;;;;;2.22;1.58;;;;;;;;;;2261509;59;21059;-79
2022/08/24 14:17:54;;;;;;;2.90;1.73;;;;;;;;;;2603828;52;22070;-79
2022/08/24 14:20:40;;;;;;;5.12;2.22;;;;;;;;;;2346146;57;21065;-79
2022/08/24 14:23:13;;;;;;;2.62;1.83;;;;;;;;;;2347972;56;21095;-79
2022/08/24 14:25:40;;;;;;;3.85;1.90;;;;;;;;;;2374061;56;21027;-79
2022/08/24 14:28:34;;;;;;;5.78;2.15;;;;;;;;;;2628040;52;21612;-79
2022/08/24 14:31:26;;;;;;;3.70;2.05;;;;;;;;;;2627712;52;21577;-79
2022/08/24 14:34:16;;;;;;;2.50;1.80;;;;;;;;;;2371445;56;21043;-79
2022/08/24 14:36:46;;;;;;;3.75;1.83;;;;;;;;;;2372415;56;21122;-79
2022/08/24 14:39:21;;;;;;;1.50;1.40;;;;;;;;;;2373983;56;21075;-79
2022/08/24 14:41:54;;;;;;;1.90;1.27;;;;;;;;;;2373520;56;21098;-79
2022/08/24 14:44:43;;;;;;;2.15;1.77;;;;;;;;;;2374896;56;21064;-79
2022/08/24 14:47:16;;;;;;;5.18;1.60;;;;;;;;;;2358365;56;21046;-79
2022/08/24 14:49:47;;;;;;;3.62;1.50;;;;;;;;;;2373308;56;21034;-79
2022/08/24 14:52:23;;;;;;;6.93;1.55;;;;;;;;;;2373832;56;21343;-80
2022/08/24 14:55:02;;;;;;;2.30;1.83;;;;;;;;;;2374665;56;21075;-79
2022/08/24 14:57:52;;;;;;;3.70;1.45;;;;;;;;;;2372361;56;21109;-80
2022/08/24 15:00:21;;;;;;;2.33;1.50;;;;;;;;;;2355089;56;21050;-79
2022/08/24 15:03:06;;;;;;;2.25;1.58;;;;;;;;;;2373048;56;21077;-79
2022/08/24 15:05:39;;;;;;;3.65;1.70;;;;;;;;;;2372152;56;21137;-81
2022/08/24 15:08:09;;;;;;;3.42;1.50;;;;;;;;;;2375726;56;21071;-81
2022/08/24 15:10:38;;;;;;;4.90;1.80;;;;;;;;;;2375704;56;21541;-83
2022/08/24 15:13:07;;;;;;;6.57;1.77;;;;;;;;;;2373963;56;21042;-81
2022/08/24 15:15:38;;;;;;;6.10;1.35;;;;;;;;;;2373707;56;21062;-83
2022/08/24 15:18:08;;;;;;;6.10;1.83;;;;;;;;;;2625123;52;21106;-79
2022/08/24 15:20:57;;;;;;;4.03;1.67;;;;;;;;;;2371664;56;21126;-79